Island Trader — P3XJ8 — position and weather

sailwx.info

Track history (hours):
 
Tides and Currents Weather Stations Pressure Air Temp Water Temp Dewpoint Dewpoint Depression Visibility Wind Speed Wind Dir Waves Ship Positions

Island Trader

Last reported at 2017-Nov-19 22:42 UTC. Time now 2017-Nov-21 23:16 UTC.
Position N 34°40' E 033°03'.

Length 77 m; draft 5 m.

Type: Tanker. MMSI: 210282000.

Date/timePositionNaut miles runAvg speedWind from/ knotsBaromVisibWave heightAir tempDewpointWater temp
2017-Nov-19 22:42N 34°40' E 033°03'0 0.0
2017-Nov-19 22:30N 34°40' E 033°03'0 0.0
2017-Nov-19 22:00N 34°40' E 033°03'0 0.0
2017-Nov-19 21:22N 34°40' E 033°03'0 0.0
2017-Nov-19 13:00N 34°40' E 033°03'0 0.0
2017-Nov-19 12:14N 34°40' E 033°03'0 0.0
2017-Nov-19 11:22N 34°40' E 033°03'0 0.0
2017-Nov-19 10:47N 34°40' E 033°03'0 0.0
2017-Nov-19 10:26N 34°40' E 033°03'0 0.0
2017-Nov-19 09:28N 34°40' E 033°03'0 0.0
2017-Nov-19 08:13N 34°40' E 033°03'0 0.0
2017-Nov-19 07:56N 34°40' E 033°03'0 0.0
2017-Nov-19 06:30N 34°40' E 033°03'0 0.0
2017-Nov-19 05:42N 34°40' E 033°03'0 0.1
2017-Nov-19 05:30N 34°40' E 033°03'1 1.5
2017-Nov-19 04:55N 34°39' E 033°02'1 2.8
2017-Nov-19 04:28N 34°39' E 033°01'0 0.0
2017-Nov-19 03:59N 34°39' E 033°01'0 0.0
2017-Nov-19 03:06N 34°39' E 033°01'0 0.1
2017-Nov-19 02:59N 34°39' E 033°01'0 0.0
2017-Nov-19 00:54N 34°39' E 033°01'0 0.0
2017-Nov-19 00:23N 34°39' E 033°01'0 0.0
2017-Nov-18 23:54N 34°39' E 033°01'0 0.5
2017-Nov-18 23:29N 34°39' E 033°01'2 0.2
2017-Nov-18 13:49N 34°40' E 033°03'2 4.8
2017-Nov-18 13:27N 34°39' E 033°01'0 0.4
2017-Nov-18 12:57N 34°39' E 033°01'0 0.0
2017-Nov-18 12:25N 34°39' E 033°01'0 0.0
2017-Nov-18 11:58N 34°39' E 033°01'0 0.0
2017-Nov-18 11:28N 34°39' E 033°01'0 0.2
2017-Nov-18 10:56N 34°39' E 033°01'0 0.6
2017-Nov-18 10:30N 34°39' E 033°01'0 0.0
2017-Nov-18 10:00N 34°39' E 033°01'0 0.0
2017-Nov-18 09:30N 34°39' E 033°01'0 0.0
2017-Nov-18 09:00N 34°39' E 033°01'0 0.0
2017-Nov-18 08:30N 34°39' E 033°01'0 0.0
2017-Nov-18 08:00N 34°39' E 033°01'0 0.3
2017-Nov-18 07:30N 34°39' E 033°01'2 0.1
2017-Nov-17 13:47N 34°40' E 033°04'1 0.1
2017-Nov-17 07:39N 34°40' E 033°03'1 0.1
2017-Nov-16 20:50N 34°39' E 033°02'1 0.4
2017-Nov-16 17:41N 34°39' E 033°01'0 0.5
2017-Nov-16 17:29N 34°39' E 033°01'2 1.9
2017-Nov-16 16:24N 34°40' E 033°03'0 0.1
2017-Nov-16 11:24N 34°40' E 033°04'2 5.8
2017-Nov-16 11:00N 34°39' E 033°01'0 0.1
2017-Nov-16 10:20N 34°39' E 033°01'0 0.0
2017-Nov-16 09:59N 34°39' E 033°01'0 0.0
2017-Nov-16 09:18N 34°39' E 033°01'0 0.0
2017-Nov-16 08:49N 34°39' E 033°01'0 0.0
2017-Nov-16 08:30N 34°39' E 033°01'0 0.1
2017-Nov-16 08:00N 34°39' E 033°01'1 2.6
2017-Nov-16 07:26N 34°39' E 033°03'0 0.0
2017-Nov-15 15:46N 34°40' E 033°03'2 5.5
2017-Nov-15 15:28N 34°39' E 033°01'0 0.5
2017-Nov-15 15:00N 34°39' E 033°01'0 0.0
2017-Nov-15 14:30N 34°39' E 033°01'0 0.0
2017-Nov-15 14:00N 34°39' E 033°01'0 0.0
2017-Nov-15 13:30N 34°39' E 033°01'0 0.0
2017-Nov-15 13:00N 34°39' E 033°01'0 0.0
2017-Nov-15 12:30N 34°39' E 033°01'0 0.0
2017-Nov-15 12:00N 34°39' E 033°01'0 0.0
2017-Nov-15 11:30N 34°39' E 033°01'0 0.0
2017-Nov-15 11:00N 34°39' E 033°01'0 0.7
2017-Nov-15 10:30N 34°39' E 033°01'0 0.0
2017-Nov-15 10:00N 34°39' E 033°01'0 0.0
2017-Nov-15 09:30N 34°39' E 033°01'0 0.0
2017-Nov-15 09:00N 34°39' E 033°01'0 0.0
2017-Nov-15 08:30N 34°39' E 033°01'0 0.0
2017-Nov-15 08:00N 34°39' E 033°01'0 0.8
2017-Nov-15 07:30N 34°39' E 033°01'2 0.1
2017-Nov-14 18:59N 34°40' E 033°03'2 4.2
2017-Nov-14 18:30N 34°39' E 033°01'0 0.0
2017-Nov-14 18:00N 34°39' E 033°01'0 0.0
2017-Nov-14 17:30N 34°39' E 033°01'0 0.0
2017-Nov-14 17:00N 34°39' E 033°01'0 0.0
2017-Nov-14 16:30N 34°39' E 033°01'1 1.4
2017-Nov-14 16:00N 34°39' E 033°02'2 0.0
2017-Nov-12 20:53N 34°40' E 033°04'  
2017-Nov-10 14:04N 34°39' E 033°02'0 6.8
2017-Nov-10 14:00N 34°39' E 033°02'1 1.4
2017-Nov-10 13:11N 34°39' E 033°01'0 0.0
2017-Nov-10 12:58N 34°39' E 033°01'0 0.0
2017-Nov-10 12:29N 34°39' E 033°01'0 0.0
2017-Nov-10 11:55N 34°39' E 033°01'0 0.0
2017-Nov-10 11:14N 34°39' E 033°01'0 0.0
2017-Nov-10 07:19N 34°39' E 033°01'0 0.0
2017-Nov-10 06:17N 34°39' E 033°01'0 0.3
2017-Nov-10 05:59N 34°39' E 033°01'1 1.5
2017-Nov-10 05:29N 34°39' E 033°02'  
Track history (hours):
 
Tides and Currents Weather Stations Pressure Air Temp Water Temp Dewpoint Dewpoint Depression Visibility Wind Speed Wind Dir Waves Ship Positions

Island Trader

Last reported at 2017-Nov-19 22:42 UTC. Time now 2017-Nov-21 23:16 UTC.
Position N 34°40' E 033°03'.

Length 77 m; draft 5 m.

Type: Tanker. MMSI: 210282000.

Date/timePositionNaut miles runAvg speedWind from/ knotsBaromVisibWave heightAir tempDewpointWater temp
2017-Nov-19 22:42N 34°40' E 033°03'0 0.0
2017-Nov-19 22:30N 34°40' E 033°03'0 0.0
2017-Nov-19 22:00N 34°40' E 033°03'0 0.0
2017-Nov-19 21:22N 34°40' E 033°03'0 0.0
2017-Nov-19 13:00N 34°40' E 033°03'0 0.0
2017-Nov-19 12:14N 34°40' E 033°03'0 0.0
2017-Nov-19 11:22N 34°40' E 033°03'0 0.0
2017-Nov-19 10:47N 34°40' E 033°03'0 0.0
2017-Nov-19 10:26N 34°40' E 033°03'0 0.0
2017-Nov-19 09:28N 34°40' E 033°03'0 0.0
2017-Nov-19 08:13N 34°40' E 033°03'0 0.0
2017-Nov-19 07:56N 34°40' E 033°03'0 0.0
2017-Nov-19 06:30N 34°40' E 033°03'0 0.0
2017-Nov-19 05:42N 34°40' E 033°03'0 0.1
2017-Nov-19 05:30N 34°40' E 033°03'1 1.5
2017-Nov-19 04:55N 34°39' E 033°02'1 2.8
2017-Nov-19 04:28N 34°39' E 033°01'0 0.0
2017-Nov-19 03:59N 34°39' E 033°01'0 0.0
2017-Nov-19 03:06N 34°39' E 033°01'0 0.1
2017-Nov-19 02:59N 34°39' E 033°01'0 0.0
2017-Nov-19 00:54N 34°39' E 033°01'0 0.0
2017-Nov-19 00:23N 34°39' E 033°01'0 0.0
2017-Nov-18 23:54N 34°39' E 033°01'0 0.5
2017-Nov-18 23:29N 34°39' E 033°01'2 0.2
2017-Nov-18 13:49N 34°40' E 033°03'2 4.8
2017-Nov-18 13:27N 34°39' E 033°01'0 0.4
2017-Nov-18 12:57N 34°39' E 033°01'0 0.0
2017-Nov-18 12:25N 34°39' E 033°01'0 0.0
2017-Nov-18 11:58N 34°39' E 033°01'0 0.0
2017-Nov-18 11:28N 34°39' E 033°01'0 0.2
2017-Nov-18 10:56N 34°39' E 033°01'0 0.6
2017-Nov-18 10:30N 34°39' E 033°01'0 0.0
2017-Nov-18 10:00N 34°39' E 033°01'0 0.0
2017-Nov-18 09:30N 34°39' E 033°01'0 0.0
2017-Nov-18 09:00N 34°39' E 033°01'0 0.0
2017-Nov-18 08:30N 34°39' E 033°01'0 0.0
2017-Nov-18 08:00N 34°39' E 033°01'0 0.3
2017-Nov-18 07:30N 34°39' E 033°01'2 0.1
2017-Nov-17 13:47N 34°40' E 033°04'1 0.1
2017-Nov-17 07:39N 34°40' E 033°03'1 0.1
2017-Nov-16 20:50N 34°39' E 033°02'1 0.4
2017-Nov-16 17:41N 34°39' E 033°01'0 0.5
2017-Nov-16 17:29N 34°39' E 033°01'2 1.9
2017-Nov-16 16:24N 34°40' E 033°03'0 0.1
2017-Nov-16 11:24N 34°40' E 033°04'2 5.8
2017-Nov-16 11:00N 34°39' E 033°01'0 0.1
2017-Nov-16 10:20N 34°39' E 033°01'0 0.0
2017-Nov-16 09:59N 34°39' E 033°01'0 0.0
2017-Nov-16 09:18N 34°39' E 033°01'0 0.0
2017-Nov-16 08:49N 34°39' E 033°01'0 0.0
2017-Nov-16 08:30N 34°39' E 033°01'0 0.1
2017-Nov-16 08:00N 34°39' E 033°01'1 2.6
2017-Nov-16 07:26N 34°39' E 033°03'0 0.0
2017-Nov-15 15:46N 34°40' E 033°03'2 5.5
2017-Nov-15 15:28N 34°39' E 033°01'0 0.5
2017-Nov-15 15:00N 34°39' E 033°01'0 0.0
2017-Nov-15 14:30N 34°39' E 033°01'0 0.0
2017-Nov-15 14:00N 34°39' E 033°01'0 0.0
2017-Nov-15 13:30N 34°39' E 033°01'0 0.0
2017-Nov-15 13:00N 34°39' E 033°01'0 0.0
2017-Nov-15 12:30N 34°39' E 033°01'0 0.0
2017-Nov-15 12:00N 34°39' E 033°01'0 0.0
2017-Nov-15 11:30N 34°39' E 033°01'0 0.0
2017-Nov-15 11:00N 34°39' E 033°01'0 0.7
2017-Nov-15 10:30N 34°39' E 033°01'0 0.0
2017-Nov-15 10:00N 34°39' E 033°01'0 0.0
2017-Nov-15 09:30N 34°39' E 033°01'0 0.0
2017-Nov-15 09:00N 34°39' E 033°01'0 0.0
2017-Nov-15 08:30N 34°39' E 033°01'0 0.0
2017-Nov-15 08:00N 34°39' E 033°01'0 0.8
2017-Nov-15 07:30N 34°39' E 033°01'2 0.1
2017-Nov-14 18:59N 34°40' E 033°03'2 4.2
2017-Nov-14 18:30N 34°39' E 033°01'0 0.0
2017-Nov-14 18:00N 34°39' E 033°01'0 0.0
2017-Nov-14 17:30N 34°39' E 033°01'0 0.0
2017-Nov-14 17:00N 34°39' E 033°01'0 0.0
2017-Nov-14 16:30N 34°39' E 033°01'1 1.4
2017-Nov-14 16:00N 34°39' E 033°02'2 0.0
2017-Nov-12 20:53N 34°40' E 033°04'  
2017-Nov-10 14:04N 34°39' E 033°02'0 6.8
2017-Nov-10 14:00N 34°39' E 033°02'1 1.4
2017-Nov-10 13:11N 34°39' E 033°01'0 0.0
2017-Nov-10 12:58N 34°39' E 033°01'0 0.0
2017-Nov-10 12:29N 34°39' E 033°01'0 0.0
2017-Nov-10 11:55N 34°39' E 033°01'0 0.0
2017-Nov-10 11:14N 34°39' E 033°01'0 0.0
2017-Nov-10 07:19N 34°39' E 033°01'0 0.0
2017-Nov-10 06:17N 34°39' E 033°01'0 0.3
2017-Nov-10 05:59N 34°39' E 033°01'1 1.5
2017-Nov-10 05:29N 34°39' E 033°02'  

Dump ship's entire track history